createdAt,value
2019-04-27T00:00:14.150Z,93.60
2019-04-27T00:02:46.405Z,94.40
2019-04-27T00:05:18.501Z,94.80
2019-04-27T00:07:51.425Z,94.50
2019-04-27T00:10:20.411Z,94.60
2019-04-27T00:12:48.350Z,92.70
2019-04-27T00:15:17.772Z,93.40
2019-04-27T00:17:58.297Z,93.70
2019-04-27T00:20:36.224Z,92.90
2019-04-27T00:23:05.599Z,93.70
2019-04-27T00:25:33.360Z,94.30
2019-04-27T00:28:01.084Z,93.40
2019-04-27T00:30:28.873Z,94.00
2019-04-27T00:32:56.609Z,94.30
2019-04-27T00:35:26.013Z,94.30
2019-04-27T00:38:10.457Z,94.30
2019-04-27T00:40:39.875Z,94.70
2019-04-27T00:43:07.619Z,95.20
2019-04-27T00:45:35.397Z,95.30
2019-04-27T00:48:03.701Z,95.80
2019-04-27T00:50:31.598Z,95.40
2019-04-27T00:52:59.333Z,95.50
2019-04-27T00:55:27.075Z,95.00
2019-04-27T00:58:13.152Z,95.40
2019-04-27T01:00:45.502Z,95.30
2019-04-27T01:03:27.038Z,95.10
2019-04-27T01:05:54.798Z,95.40
2019-04-27T01:08:22.974Z,95.40
2019-04-27T01:10:50.918Z,95.00
2019-04-27T01:13:18.652Z,94.90
2019-04-27T01:15:46.409Z,95.20
2019-04-27T01:18:15.506Z,95.10
2019-04-27T01:20:43.415Z,93.50
2019-04-27T01:23:11.186Z,94.10
2019-04-27T01:25:40.586Z,93.90
2019-04-27T01:28:20.642Z,93.50
2019-04-27T01:30:52.791Z,94.10
2019-04-27T01:33:20.578Z,92.60
2019-04-27T01:35:49.161Z,93.20
2019-04-27T01:38:17.116Z,92.50
2019-04-27T01:40:44.859Z,92.90
2019-04-27T01:43:12.643Z,92.70
2019-04-27T01:45:40.382Z,93.60
2019-04-27T01:48:20.851Z,92.90
2019-04-27T01:50:39.067Z,92.60
2019-04-27T01:53:08.852Z,92.50
2019-04-27T01:55:36.416Z,92.20
2019-04-27T01:58:04.191Z,91.60
2019-04-27T02:00:35.135Z,92.60
2019-04-27T02:03:04.551Z,91.90
2019-04-27T02:05:33.957Z,92.00
2019-04-27T02:08:01.819Z,92.70
2019-04-27T02:10:29.596Z,92.60
2019-04-27T02:12:58.715Z,92.70
2019-04-27T02:15:26.650Z,93.00
2019-04-27T02:17:54.441Z,93.00
2019-04-27T02:20:22.171Z,92.70
2019-04-27T02:22:50.788Z,92.60
2019-04-27T02:25:19.257Z,92.70
2019-04-27T02:27:49.709Z,92.20
2019-04-27T02:30:42.812Z,91.60
2019-04-27T02:33:16.039Z,91.70
2019-04-27T02:35:43.794Z,91.40
2019-04-27T02:38:11.562Z,91.50
2019-04-27T02:41:10.020Z,91.40
2019-04-27T02:44:19.950Z,91.80
2019-04-27T02:46:50.182Z,91.80
2019-04-27T02:49:17.278Z,91.80
2019-04-27T02:54:56.499Z,92.00
2019-04-27T02:57:24.459Z,92.20
2019-04-27T02:59:52.286Z,92.10
2019-04-27T03:02:24.622Z,91.80
2019-04-27T03:04:52.398Z,92.20
2019-04-27T03:07:20.409Z,92.90
2019-04-27T03:13:00.123Z,92.50
2019-04-27T03:15:30.523Z,92.90
2019-04-27T03:18:16.537Z,92.50
2019-04-27T03:20:50.388Z,92.60
2019-04-27T03:23:19.974Z,93.10
2019-04-27T03:25:55.468Z,92.70
2019-04-27T03:28:29.872Z,92.70
2019-04-27T03:31:02.590Z,92.00
2019-04-27T03:33:32.354Z,92.60
2019-04-27T03:36:12.439Z,93.40
2019-04-27T03:39:24.855Z,94.20
2019-04-27T03:41:52.960Z,94.50
2019-04-27T03:44:20.883Z,94.10
2019-04-27T03:47:19.779Z,94.20
2019-04-27T03:50:04.575Z,94.90
2019-04-27T03:52:46.648Z,94.50
2019-04-27T03:55:19.937Z,95.00
2019-04-27T03:57:49.910Z,95.10
2019-04-27T04:03:29.702Z,94.50
2019-04-27T04:05:57.105Z,94.00
2019-04-27T04:08:24.849Z,93.80
2019-04-27T04:10:54.251Z,93.30
2019-04-27T04:13:36.638Z,94.20
2019-04-27T04:16:15.286Z,93.50
2019-04-27T04:18:56.515Z,93.60
2019-04-27T04:21:24.332Z,92.80
2019-04-27T04:27:50.662Z,93.60
2019-04-27T04:33:20.187Z,92.20
2019-04-27T04:35:49.064Z,92.80
2019-04-27T04:38:16.778Z,93.30
2019-04-27T04:40:46.189Z,92.00
2019-04-27T04:43:15.577Z,92.40
2019-04-27T04:46:19.103Z,92.40
2019-04-27T04:48:30.892Z,92.20
2019-04-27T04:50:59.978Z,91.90
2019-04-27T04:53:29.290Z,92.10
2019-04-27T04:55:57.280Z,92.10
2019-04-27T04:58:25.033Z,92.30
2019-04-27T05:00:52.810Z,92.40
2019-04-27T05:03:21.877Z,93.20
2019-04-27T05:05:50.257Z,92.90
2019-04-27T05:08:19.063Z,93.30
2019-04-27T05:10:46.910Z,94.20
2019-04-27T05:13:39.349Z,93.90
2019-04-27T05:16:08.829Z,93.50
2019-04-27T05:18:36.553Z,93.20
2019-04-27T05:21:21.948Z,92.50
2019-04-27T05:23:49.680Z,92.20
2019-04-27T05:26:19.381Z,92.40
2019-04-27T05:28:49.073Z,93.20
2019-04-27T05:31:16.370Z,93.60
2019-04-27T05:33:44.236Z,93.20
2019-04-27T05:36:11.991Z,93.00
2019-04-27T05:38:45.689Z,92.50
2019-04-27T05:41:09.147Z,92.40
2019-04-27T05:47:05.325Z,92.00
2019-04-27T05:49:36.309Z,92.40
2019-04-27T05:54:10.541Z,91.30
2019-04-27T05:54:32.632Z,90.90
2019-04-27T05:57:00.402Z,91.90
2019-04-27T05:59:29.799Z,91.50
2019-04-27T06:02:17.014Z,91.30
2019-04-27T06:04:44.757Z,92.10
2019-04-27T06:07:12.521Z,91.00
2019-04-27T06:09:40.315Z,90.00
2019-04-27T06:12:09.053Z,87.90
2019-04-27T06:14:36.836Z,88.70
2019-04-27T06:17:04.605Z,88.40
2019-04-27T06:19:32.350Z,88.80
2019-04-27T06:22:30.786Z,90.30
2019-04-27T06:25:00.224Z,89.50
2019-04-27T06:27:30.695Z,90.10
2019-04-27T06:29:59.148Z,90.40
2019-04-27T06:32:26.759Z,90.60
2019-04-27T06:34:54.502Z,90.90
2019-04-27T06:37:22.265Z,90.90
2019-04-27T06:39:50.021Z,90.70
2019-04-27T06:42:20.391Z,90.10
2019-04-27T06:44:47.174Z,91.00
2019-04-27T06:47:14.943Z,90.40
2019-04-27T06:49:42.693Z,90.60
2019-04-27T06:52:10.529Z,90.70
2019-04-27T06:54:38.931Z,90.90
2019-04-27T06:57:06.857Z,90.90
2019-04-27T06:59:34.581Z,91.10
2019-04-27T07:02:02.333Z,91.90
2019-04-27T07:04:32.870Z,91.70
2019-04-27T07:07:01.668Z,92.10
2019-04-27T07:09:29.678Z,91.50
2019-04-27T07:11:59.182Z,91.10
2019-04-27T07:14:59.177Z,90.60
2019-04-27T07:17:28.835Z,90.20
2019-04-27T07:22:49.522Z,90.30
2019-04-27T07:25:24.502Z,90.40
2019-04-27T07:27:59.188Z,90.90
2019-04-27T07:30:28.729Z,90.60
2019-04-27T07:32:56.619Z,89.70
2019-04-27T07:35:24.357Z,89.60
2019-04-27T07:37:52.095Z,89.30
2019-04-27T07:40:19.887Z,88.70
2019-04-27T07:43:12.166Z,87.60
2019-04-27T07:45:40.982Z,86.40
2019-04-27T07:51:35.561Z,86.10
2019-04-27T07:54:03.330Z,85.00
2019-04-27T07:56:31.079Z,84.40
2019-04-27T07:59:18.887Z,84.30
2019-04-27T08:08:19.119Z,84.90
2019-04-27T08:10:50.143Z,85.90
2019-04-27T08:13:19.387Z,85.60
2019-04-27T08:15:47.166Z,85.30
2019-04-27T08:18:14.927Z,84.90
2019-04-27T08:21:14.908Z,85.90
2019-04-27T08:30:16.938Z,83.20
2019-04-27T08:32:46.334Z,83.80
2019-04-27T08:35:14.129Z,84.80
2019-04-27T08:37:41.888Z,85.30
2019-04-27T08:40:39.212Z,85.90
2019-04-27T08:43:09.068Z,84.60
2019-04-27T08:45:36.544Z,85.50
2019-04-27T08:48:04.287Z,85.00
2019-04-27T08:50:32.050Z,84.90
2019-04-27T08:53:00.809Z,85.30
2019-04-27T08:55:29.443Z,83.80
2019-04-27T08:57:58.734Z,83.40
2019-04-27T09:00:26.631Z,82.90
2019-04-27T09:02:54.371Z,80.40
2019-04-27T09:05:25.340Z,78.70
2019-04-27T09:07:59.689Z,79.80
2019-04-27T09:10:31.914Z,81.00
2019-04-27T09:13:04.285Z,80.50
2019-04-27T09:15:45.471Z,80.00
2019-04-27T09:18:14.832Z,79.00
2019-04-27T09:26:20.264Z,75.00
2019-04-27T09:28:49.290Z,74.10
2019-04-27T09:31:19.595Z,71.80
2019-04-27T09:33:47.463Z,70.00
2019-04-27T09:36:16.554Z,72.80
2019-04-27T09:38:46.284Z,71.70
2019-04-27T09:41:13.958Z,70.10
2019-04-27T09:43:41.703Z,72.60
2019-04-27T09:46:09.487Z,70.10
2019-04-27T09:48:41.597Z,70.00
2019-04-27T09:51:09.373Z,68.10
2019-04-27T09:53:37.113Z,69.70
2019-04-27T09:56:05.842Z,69.60
2019-04-27T09:58:33.741Z,71.00
2019-04-27T10:01:01.537Z,70.40
2019-04-27T10:03:29.306Z,67.30
2019-04-27T10:06:06.965Z,64.50
2019-04-27T10:08:39.846Z,62.80
2019-04-27T10:11:07.590Z,58.90
2019-04-27T10:13:36.403Z,59.90
2019-04-27T10:16:08.573Z,62.60
2019-04-27T10:18:58.029Z,64.50
2019-04-27T10:21:26.407Z,65.10
2019-04-27T10:23:54.272Z,65.60
2019-04-27T10:26:22.079Z,64.90
2019-04-27T10:28:52.088Z,56.40
2019-04-27T10:31:24.969Z,57.90
2019-04-27T10:33:53.339Z,57.80
2019-04-27T10:36:40.808Z,57.40
2019-04-27T10:39:13.108Z,58.10
2019-04-27T10:41:47.606Z,55.90
2019-04-27T10:44:16.362Z,56.60
2019-04-27T10:46:44.263Z,55.40
2019-04-27T10:49:13.281Z,55.20
2019-04-27T10:51:41.018Z,54.20
2019-04-27T10:54:08.798Z,52.90
2019-04-27T10:56:36.554Z,51.90
2019-04-27T10:59:06.503Z,53.40
2019-04-27T11:01:35.932Z,53.70
2019-04-27T11:04:06.000Z,49.30
2019-04-27T11:06:41.275Z,45.60
2019-04-27T11:09:08.668Z,46.70
2019-04-27T11:11:36.475Z,49.30
2019-04-27T11:14:04.285Z,50.60
2019-04-27T11:16:32.307Z,48.10
2019-04-27T11:22:12.176Z,52.00
2019-04-27T11:24:39.911Z,52.10
2019-04-27T11:27:10.681Z,54.00
2019-04-27T11:29:38.413Z,53.20
2019-04-27T11:32:06.164Z,53.00
2019-04-27T11:34:55.845Z,52.50
2019-04-27T11:37:25.415Z,51.20
2019-04-27T11:39:53.182Z,50.60
2019-04-27T11:42:30.762Z,51.70
2019-04-27T11:44:58.554Z,52.80
2019-04-27T11:47:27.473Z,52.30
2019-04-27T11:49:55.384Z,52.20
2019-04-27T11:52:23.152Z,52.10
2019-04-27T11:54:50.931Z,52.60
2019-04-27T11:57:18.693Z,53.90
2019-04-27T11:59:46.483Z,55.40
2019-04-27T12:02:15.585Z,54.20
2019-04-27T12:04:43.641Z,53.80
2019-04-27T12:07:11.408Z,53.30
2019-04-27T12:09:39.153Z,53.40
2019-04-27T12:12:13.517Z,52.40
2019-04-27T12:14:36.347Z,51.00
2019-04-27T12:17:04.110Z,53.30
2019-04-27T12:19:37.643Z,52.80
2019-04-27T12:22:06.244Z,51.60
2019-04-27T12:24:35.519Z,51.50
2019-04-27T12:27:21.210Z,53.40
2019-04-27T12:30:02.804Z,50.90
2019-04-27T12:32:30.626Z,49.40
2019-04-27T12:35:01.263Z,48.60
2019-04-27T12:37:33.544Z,49.60
2019-04-27T12:40:01.323Z,49.90
2019-04-27T12:42:29.063Z,51.00
2019-04-27T12:44:56.831Z,52.20
2019-04-27T12:47:26.354Z,53.60
2019-04-27T12:49:57.525Z,52.70
2019-04-27T12:52:23.747Z,53.50
2019-04-27T12:54:56.456Z,53.70
2019-04-27T12:57:42.405Z,55.80
2019-04-27T13:00:16.388Z,54.00
2019-04-27T13:02:43.944Z,52.70
2019-04-27T13:05:12.374Z,50.30
2019-04-27T13:07:40.119Z,51.70
2019-04-27T13:10:08.269Z,54.10
2019-04-27T13:12:36.019Z,53.90
2019-04-27T13:15:15.755Z,53.20
2019-04-27T13:17:43.514Z,55.20
2019-04-27T13:20:11.282Z,55.20
2019-04-27T13:22:39.034Z,56.20
2019-04-27T13:25:07.307Z,57.30
2019-04-27T13:27:36.645Z,58.30
2019-04-27T13:30:07.318Z,59.20
2019-04-27T13:32:36.339Z,61.30
2019-04-27T13:35:05.814Z,63.30
2019-04-27T13:37:41.367Z,63.10
2019-04-27T13:40:09.922Z,61.80
2019-04-27T13:42:39.507Z,62.00
2019-04-27T13:45:08.914Z,65.00
2019-04-27T13:47:46.418Z,66.00
2019-04-27T13:50:15.849Z,67.40
2019-04-27T13:52:43.587Z,66.80
2019-04-27T13:55:11.335Z,67.90
2019-04-27T13:57:49.807Z,68.30
2019-04-27T14:00:08.785Z,66.90
2019-04-27T14:02:44.053Z,67.30
2019-04-27T14:05:15.014Z,65.40
2019-04-27T14:08:04.194Z,65.60
2019-04-27T14:10:33.177Z,65.40
2019-04-27T14:13:00.930Z,64.30
2019-04-27T14:15:28.938Z,62.80
2019-04-27T14:17:56.843Z,61.00
2019-04-27T14:20:24.600Z,59.60
2019-04-27T14:22:53.979Z,60.00
2019-04-27T14:25:21.723Z,58.70
2019-04-27T14:27:49.507Z,62.40
2019-04-27T14:30:17.522Z,62.90
2019-04-27T14:32:45.439Z,62.70
2019-04-27T14:35:13.361Z,63.10
2019-04-27T14:37:41.132Z,65.00
2019-04-27T14:40:08.901Z,66.00
2019-04-27T14:42:36.664Z,69.50
2019-04-27T14:45:05.082Z,67.40
2019-04-27T14:50:00.539Z,69.40
2019-04-27T14:52:30.202Z,72.00
2019-04-27T14:55:00.065Z,73.80
2019-04-27T15:00:38.437Z,73.70
2019-04-27T15:03:06.453Z,76.40
2019-04-27T15:05:34.167Z,77.60
2019-04-27T15:08:05.572Z,77.80
2019-04-27T15:10:33.047Z,78.80
2019-04-27T15:13:08.251Z,82.00
2019-04-27T15:15:36.556Z,81.20
2019-04-27T15:18:07.045Z,80.20
2019-04-27T15:21:02.729Z,81.70
2019-04-27T15:23:31.830Z,86.20
2019-04-27T15:26:00.359Z,87.70
2019-04-27T15:28:32.834Z,85.30
2019-04-27T15:31:04.181Z,85.10
2019-04-27T15:36:57.029Z,84.00
2019-04-27T15:39:30.584Z,86.90
2019-04-27T15:42:09.805Z,85.00
2019-04-27T15:44:42.951Z,82.80
2019-04-27T15:47:11.839Z,84.70
2019-04-27T15:49:38.786Z,83.40
2019-04-27T15:52:09.003Z,84.90
2019-04-27T15:54:40.602Z,85.90
2019-04-27T15:57:12.359Z,86.20
2019-04-27T15:59:40.851Z,87.30
2019-04-27T16:02:15.566Z,87.10
2019-04-27T16:05:23.450Z,85.50
2019-04-27T16:07:51.290Z,86.70
2019-04-27T16:11:00.732Z,87.20
2019-04-27T16:13:32.931Z,87.60
2019-04-27T16:16:03.700Z,87.60
2019-04-27T16:18:32.675Z,89.40
2019-04-27T16:21:02.892Z,89.20
2019-04-27T16:23:33.530Z,89.30
2019-04-27T16:26:00.573Z,88.10
2019-04-27T16:31:38.568Z,89.80
2019-04-27T16:34:08.228Z,87.70
2019-04-27T16:36:37.843Z,86.40
2019-04-27T16:39:08.215Z,87.90
2019-04-27T16:41:37.321Z,88.50
2019-04-27T16:44:10.591Z,87.60
2019-04-27T16:46:39.430Z,87.40
2019-04-27T16:49:13.559Z,88.50
2019-04-27T16:51:38.297Z,90.00
2019-04-27T16:54:05.636Z,89.50
2019-04-27T16:56:33.378Z,90.20
2019-04-27T16:59:20.771Z,90.00
2019-04-27T17:01:32.593Z,89.40
2019-04-27T17:06:59.122Z,91.00
2019-04-27T17:10:09.421Z,91.40
2019-04-27T17:12:41.167Z,91.10
2019-04-27T17:15:18.952Z,90.70
2019-04-27T17:21:01.018Z,86.40
2019-04-27T17:23:30.994Z,79.70
2019-04-27T17:26:04.055Z,81.30
2019-04-27T17:28:54.558Z,82.50
2019-04-27T17:34:12.458Z,90.50
2019-04-27T17:36:40.556Z,99.90
2019-04-27T17:39:09.068Z,91.40
2019-04-27T17:51:15.370Z,87.00
2019-04-27T17:53:43.122Z,89.50
2019-04-27T17:56:50.954Z,91.50
2019-04-27T17:59:20.132Z,91.30
2019-04-27T18:01:45.597Z,92.60
2019-04-27T18:04:13.327Z,91.80
2019-04-27T18:06:42.601Z,92.40
2019-04-27T18:09:43.334Z,91.90
2019-04-27T18:15:30.672Z,92.60
2019-04-27T18:30:55.070Z,90.40
2019-04-27T18:46:24.463Z,90.40
2019-04-27T18:48:53.927Z,89.50
2019-04-27T18:51:44.805Z,91.10
2019-04-27T18:57:35.006Z,91.80
2019-04-27T19:00:02.795Z,92.10
2019-04-27T19:02:30.689Z,92.50
2019-04-27T19:04:58.602Z,93.10
2019-04-27T19:07:26.506Z,92.60
2019-04-27T19:13:41.508Z,93.30
2019-04-27T19:16:15.479Z,93.90
2019-04-27T19:18:43.525Z,93.30
2019-04-27T19:21:31.473Z,93.50
2019-04-27T19:42:00.357Z,90.40
2019-04-27T19:45:00.919Z,91.30
2019-04-27T19:47:29.948Z,91.20
2019-04-27T20:10:00.710Z,91.20
2019-04-27T20:12:28.506Z,91.60
2019-04-27T20:14:56.259Z,91.80
2019-04-27T20:17:24.720Z,92.00
2019-04-27T20:19:52.490Z,91.80
2019-04-27T20:22:20.840Z,91.40
2019-04-27T20:28:22.987Z,91.40
2019-04-27T20:30:51.820Z,91.30
2019-04-27T20:33:21.051Z,92.00
2019-04-27T20:39:17.823Z,91.80
2019-04-27T20:41:45.559Z,91.20
2019-04-27T20:44:13.358Z,91.60
2019-04-27T20:46:41.435Z,91.70
2019-04-27T20:49:13.624Z,92.20
2019-04-27T20:55:15.149Z,92.70
2019-04-27T21:00:51.880Z,93.20
2019-04-27T21:03:57.342Z,92.90
2019-04-27T21:06:32.748Z,94.00
2019-04-27T21:09:00.856Z,93.20
2019-04-27T21:11:47.139Z,93.10
2019-04-27T21:14:18.574Z,93.20
2019-04-27T21:16:53.501Z,92.90
2019-04-27T21:19:44.396Z,91.90
2019-04-27T21:22:12.132Z,92.00
2019-04-27T21:24:41.323Z,91.50
2019-04-27T21:27:09.149Z,91.40
2019-04-27T21:29:36.917Z,92.00
2019-04-27T21:35:16.757Z,93.60
2019-04-27T21:37:44.499Z,93.70
2019-04-27T21:40:13.924Z,93.70
2019-04-27T21:42:43.253Z,92.00
2019-04-27T21:45:11.324Z,91.50
2019-04-27T21:47:39.151Z,92.40
2019-04-27T21:50:07.158Z,92.70
2019-04-27T21:52:43.710Z,92.30
2019-04-27T21:55:13.129Z,92.50
2019-04-27T21:57:41.037Z,91.70
2019-04-27T22:00:14.898Z,91.20
2019-04-27T22:02:42.708Z,91.20
2019-04-27T22:05:12.677Z,91.50
2019-04-27T22:07:42.566Z,91.90
2019-04-27T22:10:10.714Z,91.70
2019-04-27T22:12:38.593Z,91.80
2019-04-27T22:15:06.482Z,92.60
2019-04-27T22:17:38.682Z,92.30
2019-04-27T22:20:09.206Z,91.70
2019-04-27T22:22:54.153Z,91.70
2019-04-27T22:25:23.618Z,91.90
2019-04-27T22:27:53.001Z,92.50
2019-04-27T22:30:28.671Z,91.80
2019-04-27T22:33:01.426Z,91.50
2019-04-27T22:35:31.123Z,92.10
2019-04-27T22:42:01.778Z,91.40
2019-04-27T22:44:44.189Z,91.90
2019-04-27T22:47:17.899Z,91.30
2019-04-27T22:56:16.708Z,91.50
2019-04-27T22:58:58.615Z,91.60
2019-04-27T23:01:20.205Z,91.70
2019-04-27T23:03:51.459Z,92.30
2019-04-27T23:06:19.168Z,92.60
2019-04-27T23:08:46.938Z,92.00
2019-04-27T23:14:31.281Z,91.60
2019-04-27T23:17:14.897Z,91.70
2019-04-27T23:19:42.840Z,92.40
2019-04-27T23:22:11.145Z,91.60
2019-04-27T23:24:41.611Z,91.60
2019-04-27T23:30:21.347Z,91.60
2019-04-27T23:32:51.514Z,91.40
2019-04-27T23:35:24.825Z,91.30
2019-04-27T23:37:52.856Z,91.00
2019-04-27T23:40:26.829Z,91.10
2019-04-27T23:42:54.598Z,91.60
2019-04-27T23:45:31.857Z,91.30
2019-04-27T23:47:59.657Z,91.10
2019-04-27T23:50:33.205Z,91.00
2019-04-27T23:53:02.626Z,91.10
2019-04-27T23:55:31.978Z,92.00
2019-04-27T23:57:59.749Z,91.40
